Terminal Aerodrome Forecast
Issued by NWS

Home | Current Version | Previous Version | Text Only | Print | Product List | Glossary On
Versions: 1 2 3 4 5 6 7 8 9 10 11 12 13 14 15 16 17 18 19 20 21 22 23 24 25 26 27 28 29 30 31 32
000
FTUS46 KEKA 051720
TAFCEC
TAF
KCEC 051720Z 0518/0618 18008KT P6SM SCT005
     FM052100 18008KT P6SM OVC009
     FM060200 17006KT 3SM BR OVC005
     FM061200 VRB05KT 2SM BR OVC003
     FM061600 VRB06KT P6SM OVC005=

USA.gov is the U.S. government's official web portal to all federal, state and local government web resources and services.